Miltona, Minnesota
Current Conditions -  °F | °C
As of 6:53 PM on Sunday 23 Nov 2014 (Local Time) from KAXN Reporting Station
Overcast Overcast  
Wind Chill: 19°   Ceiling: 1900
Heat Index: 31°   Visibility: 10mi
Dew Point: 24°   Wind: 18mph
Humidity: 76%   Direction: 310°NW
Pressure: 29.47"   Gusts: NA
Location:  46.04°N, 95.29°W
Report Text: KAXN 240053Z AUTO 31016KT 10SM BKN019 OVC025 M01/M04 A2947 RMK AO2 SLP994 T10061044
Loading
Personal Weather Stations






























Interactive Weather Map New forecast layout! Learn more

10-Day Weather Forecast

Advertisements
Track Severe Weather on mobile